createdAt,value
2022-10-14T00:02:10.882Z,100.00
2022-10-14T00:04:56.453Z,100.00
2022-10-14T00:07:41.414Z,100.00
2022-10-14T00:10:26.778Z,100.00
2022-10-14T00:13:11.732Z,100.00
2022-10-14T00:15:56.956Z,100.00
2022-10-14T00:18:42.370Z,100.00
2022-10-14T00:21:28.672Z,100.00
2022-10-14T00:24:14.960Z,100.00
2022-10-14T00:26:59.881Z,100.00
2022-10-14T00:29:44.764Z,100.00
2022-10-14T00:32:30.339Z,100.00
2022-10-14T00:35:15.644Z,100.00
2022-10-14T00:38:00.763Z,100.00
2022-10-14T00:40:45.731Z,100.00
2022-10-14T00:43:56.191Z,100.00
2022-10-14T00:46:49.653Z,100.00
2022-10-14T00:49:39.268Z,100.00
2022-10-14T00:52:24.982Z,100.00
2022-10-14T00:55:18.615Z,100.00
2022-10-14T00:58:03.792Z,100.00
2022-10-14T01:00:48.979Z,100.00
2022-10-14T01:03:34.942Z,100.00
2022-10-14T01:06:45.099Z,100.00
2022-10-14T01:09:36.062Z,100.00
2022-10-14T01:12:33.377Z,100.00
2022-10-14T01:15:33.969Z,100.00
2022-10-14T01:18:19.229Z,100.00
2022-10-14T01:21:17.585Z,100.00
2022-10-14T01:24:40.101Z,100.00
2022-10-14T01:27:32.780Z,100.00
2022-10-14T01:30:25.235Z,100.00
2022-10-14T01:33:20.239Z,100.00
2022-10-14T01:36:13.618Z,100.00
2022-10-14T01:39:07.265Z,100.00
2022-10-14T01:42:17.084Z,100.00
2022-10-14T01:45:12.285Z,100.00
2022-10-14T01:48:00.174Z,100.00
2022-10-14T01:50:48.019Z,100.00
2022-10-14T01:53:38.458Z,100.00
2022-10-14T01:56:24.492Z,100.00
2022-10-14T01:59:12.413Z,100.00
2022-10-14T02:01:57.489Z,100.00
2022-10-14T02:04:42.779Z,100.00
2022-10-14T02:07:42.308Z,100.00
2022-10-14T02:10:50.941Z,100.00
2022-10-14T02:13:53.688Z,100.00
2022-10-14T02:16:48.033Z,100.00
2022-10-14T02:19:57.686Z,100.00
2022-10-14T02:22:48.201Z,100.00
2022-10-14T02:25:39.265Z,100.00
2022-10-14T02:28:27.514Z,100.00
2022-10-14T02:31:16.764Z,100.00
2022-10-14T02:34:07.152Z,100.00
2022-10-14T02:36:54.453Z,100.00
2022-10-14T02:39:44.132Z,100.00
2022-10-14T02:42:29.403Z,100.00
2022-10-14T02:45:14.565Z,100.00
2022-10-14T02:47:59.498Z,100.00
2022-10-14T02:50:44.470Z,100.00
2022-10-14T02:53:29.556Z,100.00
2022-10-14T02:56:14.645Z,100.00
2022-10-14T02:58:59.713Z,100.00
2022-10-14T03:01:44.719Z,100.00
2022-10-14T03:04:29.623Z,100.00
2022-10-14T03:07:14.628Z,100.00
2022-10-14T03:09:59.531Z,100.00
2022-10-14T03:12:45.105Z,100.00
2022-10-14T03:15:30.376Z,100.00
2022-10-14T03:18:15.891Z,100.00
2022-10-14T03:21:01.060Z,100.00
2022-10-14T03:23:46.452Z,100.00
2022-10-14T03:26:31.466Z,100.00
2022-10-14T03:29:16.564Z,100.00
2022-10-14T03:32:03.019Z,100.00
2022-10-14T03:34:47.967Z,100.00
2022-10-14T03:37:32.806Z,100.00
2022-10-14T03:40:17.804Z,100.00
2022-10-14T03:43:02.686Z,100.00
2022-10-14T03:45:47.760Z,100.00
2022-10-14T03:48:33.207Z,100.00
2022-10-14T03:51:18.265Z,100.00
2022-10-14T03:54:03.203Z,100.00
2022-10-14T03:56:48.604Z,100.00
2022-10-14T03:59:33.657Z,100.00
2022-10-14T04:02:18.793Z,100.00
2022-10-14T04:05:04.340Z,100.00
2022-10-14T04:07:49.544Z,100.00
2022-10-14T04:10:34.433Z,100.00
2022-10-14T04:13:20.105Z,100.00
2022-10-14T04:16:06.710Z,100.00
2022-10-14T04:18:51.585Z,100.00
2022-10-14T04:21:36.535Z,100.00
2022-10-14T04:24:21.482Z,100.00
2022-10-14T04:27:06.378Z,100.00
2022-10-14T04:29:52.298Z,100.00
2022-10-14T04:32:37.572Z,100.00
2022-10-14T04:35:22.772Z,100.00
2022-10-14T04:38:08.058Z,100.00
2022-10-14T04:40:53.299Z,100.00
2022-10-14T04:43:38.812Z,100.00
2022-10-14T04:46:23.839Z,100.00
2022-10-14T04:49:09.660Z,100.00
2022-10-14T04:51:54.759Z,100.00
2022-10-14T04:54:39.838Z,100.00
2022-10-14T04:57:24.869Z,100.00
2022-10-14T05:00:12.031Z,100.00
2022-10-14T05:02:57.198Z,100.00
2022-10-14T05:05:42.222Z,100.00
2022-10-14T05:08:27.073Z,100.00
2022-10-14T05:11:12.121Z,100.00
2022-10-14T05:13:57.398Z,100.00
2022-10-14T05:16:42.701Z,100.00
2022-10-14T05:19:28.120Z,100.00
2022-10-14T05:22:13.071Z,100.00
2022-10-14T05:25:00.098Z,100.00
2022-10-14T05:27:45.262Z,100.00
2022-10-14T05:30:34.520Z,100.00
2022-10-14T05:33:20.156Z,100.00
2022-10-14T05:36:05.627Z,100.00
2022-10-14T05:38:50.968Z,100.00
2022-10-14T05:41:35.736Z,100.00
2022-10-14T05:44:21.126Z,100.00
2022-10-14T05:47:06.089Z,100.00
2022-10-14T05:49:51.354Z,100.00
2022-10-14T05:52:36.514Z,100.00
2022-10-14T05:55:21.665Z,100.00
2022-10-14T05:58:07.736Z,100.00
2022-10-14T06:00:55.832Z,100.00
2022-10-14T06:03:41.318Z,100.00
2022-10-14T06:06:29.074Z,100.00
2022-10-14T06:09:14.572Z,100.00
2022-10-14T06:11:59.633Z,100.00
2022-10-14T06:14:45.326Z,100.00
2022-10-14T06:17:30.317Z,100.00
2022-10-14T06:20:15.423Z,100.00
2022-10-14T06:23:01.733Z,100.00
2022-10-14T06:25:47.142Z,100.00
2022-10-14T06:28:32.993Z,100.00
2022-10-14T06:31:18.149Z,100.00
2022-10-14T06:34:05.937Z,100.00
2022-10-14T06:36:51.120Z,100.00
2022-10-14T06:39:36.243Z,100.00
2022-10-14T06:42:21.246Z,100.00
2022-10-14T06:45:07.049Z,100.00
2022-10-14T06:47:52.359Z,100.00
2022-10-14T06:50:37.459Z,100.00
2022-10-14T06:53:22.984Z,100.00
2022-10-14T06:56:09.261Z,100.00
2022-10-14T06:58:55.263Z,100.00
2022-10-14T07:01:40.460Z,100.00
2022-10-14T07:04:25.689Z,100.00
2022-10-14T07:07:11.000Z,100.00
2022-10-14T07:09:56.082Z,100.00
2022-10-14T07:12:41.390Z,100.00
2022-10-14T07:15:26.909Z,100.00
2022-10-14T07:18:12.232Z,100.00
2022-10-14T07:21:01.851Z,100.00
2022-10-14T07:23:47.479Z,100.00
2022-10-14T07:26:33.181Z,100.00
2022-10-14T07:29:18.383Z,100.00
2022-10-14T07:32:03.936Z,100.00
2022-10-14T07:34:49.358Z,100.00
2022-10-14T07:37:34.918Z,100.00
2022-10-14T07:40:20.560Z,100.00
2022-10-14T07:43:05.767Z,100.00
2022-10-14T07:45:51.403Z,100.00
2022-10-14T07:48:52.537Z,100.00
2022-10-14T07:51:42.387Z,100.00
2022-10-14T07:54:27.869Z,100.00
2022-10-14T07:57:12.963Z,100.00
2022-10-14T07:59:58.608Z,100.00
2022-10-14T08:02:43.996Z,100.00
2022-10-14T08:05:44.355Z,100.00
2022-10-14T08:08:30.239Z,100.00
2022-10-14T08:11:19.810Z,100.00
2022-10-14T08:14:05.990Z,100.00
2022-10-14T08:16:51.148Z,100.00
2022-10-14T08:19:36.588Z,100.00
2022-10-14T08:22:21.993Z,100.00
2022-10-14T08:25:08.116Z,100.00
2022-10-14T08:27:54.524Z,100.00
2022-10-14T08:30:43.062Z,100.00
2022-10-14T08:33:28.365Z,100.00
2022-10-14T08:36:13.603Z,100.00
2022-10-14T08:38:59.493Z,100.00
2022-10-14T08:42:23.396Z,100.00
2022-10-14T08:45:15.014Z,100.00
2022-10-14T08:48:02.855Z,100.00
2022-10-14T08:50:55.945Z,100.00
2022-10-14T08:53:48.363Z,100.00
2022-10-14T08:56:36.601Z,100.00
2022-10-14T08:59:25.134Z,100.00
2022-10-14T09:02:30.789Z,100.00
2022-10-14T09:05:24.634Z,100.00
2022-10-14T09:08:15.615Z,100.00
2022-10-14T09:11:01.249Z,100.00
2022-10-14T09:14:01.051Z,100.00
2022-10-14T09:16:51.864Z,100.00
2022-10-14T09:19:50.374Z,100.00
2022-10-14T09:22:35.903Z,100.00
2022-10-14T09:25:21.348Z,100.00
2022-10-14T09:28:06.315Z,100.00
2022-10-14T09:30:54.357Z,100.00
2022-10-14T09:33:42.431Z,100.00
2022-10-14T09:36:28.062Z,100.00
2022-10-14T09:39:14.157Z,100.00
2022-10-14T09:42:00.515Z,100.00
2022-10-14T09:48:00.648Z,100.00
2022-10-14T09:50:55.399Z,100.00
2022-10-14T09:53:45.430Z,100.00
2022-10-14T09:56:40.726Z,100.00
2022-10-14T09:59:28.425Z,100.00
2022-10-14T10:02:37.227Z,100.00
2022-10-14T10:05:32.558Z,100.00
2022-10-14T10:08:18.858Z,100.00
2022-10-14T10:11:11.436Z,100.00
2022-10-14T10:13:58.109Z,100.00
2022-10-14T10:16:43.803Z,100.00
2022-10-14T10:19:33.539Z,100.00
2022-10-14T10:22:21.857Z,100.00
2022-10-14T10:25:10.209Z,100.00
2022-10-14T10:27:59.800Z,100.00
2022-10-14T10:31:12.066Z,100.00
2022-10-14T10:34:10.297Z,100.00
2022-10-14T10:37:16.887Z,100.00
2022-10-14T10:40:08.023Z,100.00
2022-10-14T10:43:10.677Z,100.00
2022-10-14T10:46:30.894Z,100.00
2022-10-14T10:49:23.479Z,100.00
2022-10-14T10:52:43.180Z,100.00
2022-10-14T10:55:51.674Z,100.00
2022-10-14T10:59:00.116Z,100.00
2022-10-14T11:02:13.242Z,100.00
2022-10-14T11:05:46.560Z,100.00
2022-10-14T11:08:55.449Z,100.00
2022-10-14T11:12:15.415Z,100.00
2022-10-14T11:15:33.512Z,99.91
2022-10-14T11:18:34.043Z,98.55
2022-10-14T11:21:37.434Z,97.65
2022-10-14T11:24:36.846Z,98.14
2022-10-14T11:27:41.303Z,99.45
2022-10-14T11:30:48.294Z,100.00
2022-10-14T11:33:57.155Z,98.17
2022-10-14T11:37:12.970Z,97.76
2022-10-14T11:40:06.591Z,96.42
2022-10-14T11:43:12.285Z,96.07
2022-10-14T11:46:10.802Z,95.70
2022-10-14T11:49:12.957Z,96.07
2022-10-14T11:52:08.970Z,96.54
2022-10-14T11:55:01.730Z,95.49
2022-10-14T11:57:59.091Z,95.03
2022-10-14T12:00:49.329Z,96.08
2022-10-14T12:04:10.640Z,94.54
2022-10-14T12:07:15.461Z,95.27
2022-10-14T12:10:06.676Z,94.65
2022-10-14T12:12:54.536Z,95.30
2022-10-14T12:15:42.869Z,96.38
2022-10-14T12:18:30.989Z,95.82
2022-10-14T12:21:28.242Z,94.86
2022-10-14T12:24:20.564Z,95.29
2022-10-14T12:27:09.798Z,94.56
2022-10-14T12:29:55.655Z,94.87
2022-10-14T12:33:00.703Z,94.40
2022-10-14T12:35:56.813Z,93.41
2022-10-14T12:38:42.280Z,93.18
2022-10-14T12:41:40.281Z,94.23
2022-10-14T12:44:35.314Z,95.06
2022-10-14T12:47:27.186Z,94.01
2022-10-14T12:50:15.200Z,93.74
2022-10-14T12:53:02.971Z,92.93
2022-10-14T12:55:53.519Z,93.39
2022-10-14T12:58:42.631Z,93.94
2022-10-14T13:01:31.094Z,93.79
2022-10-14T13:04:20.253Z,93.28
2022-10-14T13:07:39.039Z,93.64
2022-10-14T13:10:47.734Z,93.60
2022-10-14T13:13:38.951Z,94.51
2022-10-14T13:16:23.730Z,95.03
2022-10-14T13:19:34.738Z,95.62
2022-10-14T13:22:33.156Z,94.54
2022-10-14T13:25:20.735Z,94.90
2022-10-14T13:28:31.964Z,96.96
2022-10-14T13:31:38.401Z,98.30
2022-10-14T13:34:34.715Z,98.96
2022-10-14T13:37:32.063Z,99.71
2022-10-14T13:40:24.308Z,98.87
2022-10-14T13:43:19.980Z,98.76
2022-10-14T13:46:34.640Z,96.80
2022-10-14T13:49:37.535Z,97.16
2022-10-14T13:52:26.492Z,96.89
2022-10-14T13:55:21.026Z,96.67
2022-10-14T13:58:17.988Z,95.69
2022-10-14T14:01:05.604Z,96.23
2022-10-14T14:03:53.630Z,97.48
2022-10-14T14:07:02.993Z,97.47
2022-10-14T14:09:52.300Z,97.21
2022-10-14T14:12:42.297Z,96.97
2022-10-14T14:15:29.362Z,97.61
2022-10-14T14:18:43.174Z,98.11
2022-10-14T14:21:38.477Z,98.82
2022-10-14T14:24:25.193Z,98.51
2022-10-14T14:27:22.399Z,99.59
2022-10-14T14:30:23.270Z,99.96
2022-10-14T14:33:13.622Z,99.32
2022-10-14T14:36:01.712Z,98.69
2022-10-14T14:39:03.294Z,98.50
2022-10-14T14:41:53.244Z,99.07
2022-10-14T14:44:39.542Z,99.54
2022-10-14T14:47:27.343Z,99.96
2022-10-14T14:50:31.941Z,100.00
2022-10-14T14:53:24.204Z,100.00
2022-10-14T14:56:16.242Z,100.00
2022-10-14T14:59:21.236Z,100.00
2022-10-14T15:02:18.420Z,100.00
2022-10-14T15:05:09.330Z,100.00
2022-10-14T15:07:54.428Z,100.00
2022-10-14T15:10:47.344Z,100.00
2022-10-14T15:13:38.721Z,100.00
2022-10-14T15:16:51.951Z,100.00
2022-10-14T15:19:38.642Z,100.00
2022-10-14T15:22:30.293Z,100.00
2022-10-14T15:25:32.156Z,100.00
2022-10-14T15:28:31.658Z,100.00
2022-10-14T15:31:16.951Z,100.00
2022-10-14T15:34:03.826Z,100.00
2022-10-14T15:36:51.191Z,100.00
2022-10-14T15:39:36.510Z,100.00
2022-10-14T15:42:21.896Z,100.00
2022-10-14T15:45:07.850Z,100.00
2022-10-14T15:50:44.727Z,100.00
2022-10-14T15:53:29.809Z,100.00
2022-10-14T15:56:15.253Z,100.00
2022-10-14T15:59:00.860Z,100.00
2022-10-14T16:01:47.326Z,100.00
2022-10-14T16:04:32.635Z,100.00
2022-10-14T16:07:17.871Z,100.00
2022-10-14T16:10:03.581Z,100.00
2022-10-14T16:12:49.440Z,100.00
2022-10-14T16:15:43.514Z,100.00
2022-10-14T16:18:28.194Z,100.00
2022-10-14T16:21:15.929Z,100.00
2022-10-14T16:24:02.219Z,100.00
2022-10-14T16:26:48.459Z,100.00
2022-10-14T16:29:33.413Z,100.00
2022-10-14T16:32:18.806Z,100.00
2022-10-14T16:35:05.917Z,100.00
2022-10-14T16:37:51.090Z,100.00
2022-10-14T16:40:36.969Z,100.00
2022-10-14T16:43:22.263Z,100.00
2022-10-14T16:46:10.434Z,100.00
2022-10-14T16:48:58.176Z,100.00
2022-10-14T16:51:44.823Z,100.00
2022-10-14T16:54:30.183Z,100.00
2022-10-14T16:57:15.659Z,100.00
2022-10-14T17:00:01.075Z,100.00
2022-10-14T17:02:46.399Z,100.00
2022-10-14T17:05:32.100Z,100.00
2022-10-14T17:08:18.417Z,100.00
2022-10-14T17:11:03.453Z,100.00
2022-10-14T17:13:53.109Z,100.00
2022-10-14T17:16:38.043Z,100.00
2022-10-14T17:19:22.963Z,100.00
2022-10-14T17:22:08.706Z,100.00
2022-10-14T17:24:53.807Z,100.00
2022-10-14T17:27:38.730Z,100.00
2022-10-14T17:30:24.179Z,100.00
2022-10-14T17:33:09.551Z,100.00
2022-10-14T17:35:58.091Z,100.00
2022-10-14T17:38:43.108Z,100.00
2022-10-14T17:41:33.822Z,100.00
2022-10-14T17:44:19.484Z,100.00
2022-10-14T17:47:05.183Z,100.00
2022-10-14T17:49:50.186Z,100.00
2022-10-14T17:52:35.224Z,100.00
2022-10-14T17:55:20.533Z,100.00
2022-10-14T17:58:08.473Z,100.00
2022-10-14T18:00:53.580Z,100.00
2022-10-14T18:03:41.761Z,100.00
2022-10-14T18:06:32.433Z,100.00
2022-10-14T18:09:18.674Z,100.00
2022-10-14T18:12:08.740Z,100.00
2022-10-14T18:14:55.188Z,100.00
2022-10-14T18:17:44.204Z,100.00
2022-10-14T18:20:29.141Z,100.00
2022-10-14T18:23:14.803Z,100.00
2022-10-14T18:26:06.272Z,100.00
2022-10-14T18:28:56.412Z,100.00
2022-10-14T18:31:41.920Z,100.00
2022-10-14T18:34:27.301Z,100.00
2022-10-14T18:37:12.686Z,100.00
2022-10-14T18:39:57.866Z,100.00
2022-10-14T18:42:43.188Z,100.00
2022-10-14T18:45:28.170Z,100.00
2022-10-14T18:48:13.496Z,100.00
2022-10-14T18:51:00.007Z,100.00
2022-10-14T18:53:47.876Z,100.00
2022-10-14T18:56:35.678Z,100.00
2022-10-14T18:59:22.978Z,100.00
2022-10-14T19:02:12.556Z,100.00
2022-10-14T19:04:57.505Z,100.00
2022-10-14T19:07:42.915Z,100.00
2022-10-14T19:10:28.119Z,100.00
2022-10-14T19:13:13.254Z,100.00
2022-10-14T19:16:06.529Z,100.00
2022-10-14T19:18:56.509Z,100.00
2022-10-14T19:21:42.276Z,100.00
2022-10-14T19:24:27.263Z,100.00
2022-10-14T19:27:12.165Z,100.00
2022-10-14T19:29:57.621Z,100.00
2022-10-14T19:32:42.647Z,100.00
2022-10-14T19:35:27.634Z,100.00
2022-10-14T19:38:13.567Z,100.00
2022-10-14T19:41:03.936Z,100.00
2022-10-14T19:43:49.190Z,100.00
2022-10-14T19:46:34.669Z,100.00
2022-10-14T19:49:20.120Z,100.00
2022-10-14T19:52:05.828Z,100.00
2022-10-14T19:54:51.347Z,100.00
2022-10-14T19:57:36.614Z,100.00
2022-10-14T20:00:22.430Z,100.00
2022-10-14T20:03:08.021Z,100.00
2022-10-14T20:06:00.106Z,100.00
2022-10-14T20:08:45.142Z,100.00
2022-10-14T20:11:30.517Z,100.00
2022-10-14T20:14:15.901Z,100.00
2022-10-14T20:17:00.856Z,100.00
2022-10-14T20:19:45.938Z,100.00
2022-10-14T20:22:34.049Z,100.00
2022-10-14T20:25:18.908Z,100.00
2022-10-14T20:28:04.292Z,100.00
2022-10-14T20:30:49.632Z,100.00
2022-10-14T20:33:34.941Z,100.00
2022-10-14T20:36:21.907Z,100.00
2022-10-14T20:39:10.190Z,100.00
2022-10-14T20:41:55.144Z,100.00
2022-10-14T20:44:40.619Z,100.00
2022-10-14T20:47:25.790Z,100.00
2022-10-14T20:50:11.128Z,100.00
2022-10-14T20:52:56.372Z,100.00
2022-10-14T20:55:41.226Z,100.00
2022-10-14T20:58:26.653Z,100.00
2022-10-14T21:01:16.212Z,100.00
2022-10-14T21:04:04.303Z,100.00
2022-10-14T21:06:49.211Z,100.00
2022-10-14T21:09:34.141Z,100.00
2022-10-14T21:12:19.606Z,100.00
2022-10-14T21:15:05.281Z,100.00
2022-10-14T21:17:50.654Z,100.00
2022-10-14T21:20:35.604Z,100.00
2022-10-14T21:23:20.951Z,100.00
2022-10-14T21:26:06.077Z,100.00
2022-10-14T21:28:51.635Z,100.00
2022-10-14T21:31:36.733Z,100.00
2022-10-14T21:34:21.932Z,100.00
2022-10-14T21:37:07.117Z,100.00
2022-10-14T21:39:52.035Z,100.00
2022-10-14T21:42:37.301Z,100.00
2022-10-14T21:45:22.665Z,100.00
2022-10-14T21:48:07.741Z,100.00
2022-10-14T21:51:03.556Z,100.00
2022-10-14T21:53:48.552Z,100.00
2022-10-14T21:56:33.530Z,100.00
2022-10-14T21:59:18.482Z,100.00
2022-10-14T22:02:09.290Z,100.00
2022-10-14T22:04:54.429Z,100.00
2022-10-14T22:07:39.530Z,100.00
2022-10-14T22:10:24.529Z,100.00
2022-10-14T22:13:09.543Z,100.00
2022-10-14T22:15:54.942Z,100.00
2022-10-14T22:18:40.428Z,100.00
2022-10-14T22:21:27.312Z,100.00
2022-10-14T22:24:13.396Z,100.00
2022-10-14T22:26:58.507Z,100.00
2022-10-14T22:29:43.527Z,100.00
2022-10-14T22:32:28.743Z,100.00
2022-10-14T22:35:13.698Z,100.00
2022-10-14T22:37:58.742Z,100.00
2022-10-14T22:40:43.539Z,100.00
2022-10-14T22:43:28.539Z,100.00
2022-10-14T22:46:15.152Z,100.00
2022-10-14T22:49:00.626Z,100.00
2022-10-14T22:51:45.911Z,100.00
2022-10-14T22:54:31.096Z,100.00
2022-10-14T22:57:16.045Z,100.00
2022-10-14T23:00:03.834Z,100.00
2022-10-14T23:02:50.106Z,100.00
2022-10-14T23:05:35.321Z,100.00
2022-10-14T23:08:20.060Z,100.00
2022-10-14T23:11:06.565Z,100.00
2022-10-14T23:13:51.963Z,100.00
2022-10-14T23:16:38.970Z,100.00
2022-10-14T23:19:24.015Z,100.00
2022-10-14T23:22:09.451Z,100.00
2022-10-14T23:24:54.282Z,100.00
2022-10-14T23:27:39.723Z,100.00
2022-10-14T23:30:25.225Z,100.00
2022-10-14T23:33:10.559Z,100.00
2022-10-14T23:35:55.484Z,100.00
2022-10-14T23:38:40.886Z,100.00
2022-10-14T23:41:25.895Z,100.00
2022-10-14T23:44:11.450Z,100.00
2022-10-14T23:46:56.861Z,100.00
2022-10-14T23:49:41.920Z,100.00
2022-10-14T23:52:26.941Z,100.00
2022-10-14T23:55:12.652Z,100.00
2022-10-14T23:57:57.822Z,100.00
